Terminal Aerodrome Forecast
Issued by NWS Twin Cities, MN

Home | Current Version | Previous Version | Graphics & Text | Print | Product List | Glossary On
Versions: 1 2 3 4 5 6 7 8 9 10 11 12 13 14 15 16 17 18 19 20 21 22 23 24
571
FTUS43 KMPX 130527
TAFSTC
TAF
KSTC 130527Z 1306/1406 13005KT P6SM SCT060 BKN100
     FM130900 30007KT P6SM VCSH OVC015
      TEMPO 1309/1312 6SM -FZDZ BR
     FM131500 32016G24KT P6SM OVC015
     FM140100 33011G17KT P6SM OVC015=

USA.gov is the U.S. government's official web portal to all federal, state and local government web resources and services.